Wednesday, October 17, 2018, 8:32 AM GMT
Back to Local

CYBG, Bagotville, Que.

Location: , , Canada Lat: 48.333
Local Time: 8:32 AM GMT ( 8:32 GMT) Lon: -71
Time Zone: GMT Elev: 521 ft

Show me the last for .
Show Decoded

2018-10-17 08:00 METAR CYBG 170800Z 10005KT 25SM OVC068 02/01 A2962 RMK AC8 SLP037 =
2018-10-17 07:00 METAR CYBG 170700Z 08005KT 25SM OVC068 02/01 A2964 RMK AC8 SLP045 =
2018-10-17 06:00 METAR CYBG 170600Z 08006KT 25SM OVC062 02/01 A2967 RMK SC8 SLP054 =
2018-10-17 05:00 METAR CYBG 170500Z 08004KT 25SM FEW030 BKN058 OVC078 01/01 A2969 RMK SC2SC6AC1
                 SLP061 =
2018-10-17 04:44 METAR CYBG 170444Z 07009KT 25SM FEW030 OVC058 01/01 A2969 RMK SC2SC6 SLP063 =
2018-10-17 04:15 METAR CYBG 170415Z 07009KT 25SM -RA SCT030 OVC052 01/00 A2970 RMK SC3SC5 SLP066
                 =
2018-10-17 04:00 METAR CYBG 170400Z 07006KT 25SM -SN BKN030 OVC048 01/M00 A2971 RMK SC6SC2 PCPN
                 VRY LGT SLP068 =
2018-10-17 03:00 METAR CYBG 170300Z 07005KT 25SM FEW015 OVC030 00/M02 A2973 RMK SF2SC6 SLP077 =
2018-10-17 02:00 METAR CYBG 170200Z 09002KT 15SM -SN SCT014 OVC025 01/M01 A2977 RMK SF3SC5 SLP088
                 =
2018-10-17 01:00 METAR CYBG 170100Z 08002KT 25SM BKN052 01/M02 A2977 RMK SC7 SLP090 =
2018-10-17 00:00 METAR CYBG 170000Z 27003KT 25SM BKN042 02/M02 A2978 RMK SC7 SLP094 =
2018-10-16 23:00 METAR CYBG 162300Z CCA 27008KT 25SM BKN045 02/M03 A2980 RMK SC7 SLP100 =
2018-10-16 22:46 METAR CYBG 162246Z 26011KT 25SM -SHSN BKN045 02/M03 A2980 RMK SC6 SLP100 =
2018-10-16 22:00 METAR CYBG 162200Z CCA 25014G20KT 25SM BKN040 02/M04 A2980 RMK SC6 SLP098 =
2018-10-16 21:00 METAR CYBG 162100Z 26016KT 25SM BKN040 03/M04 A2979 RMK SC7 SLP094 =
2018-10-16 20:00 METAR CYBG 162000Z 24015KT 25SM BKN040 03/M04 A2978 RMK SC7 SLP092 =
2018-10-16 19:00 METAR CYBG 161900Z 24018G25KT 25SM OVC040 04/M04 A2976 RMK SC8 SLP086 =
2018-10-16 18:00 METAR CYBG 161800Z 26019G26KT 25SM BKN040 05/M04 A2975 RMK SC7 SLP082 =
2018-10-16 17:00 METAR CYBG 161700Z 28017KT 25SM BKN035 04/M04 A2975 RMK SC7 SLP082 =
2018-10-16 16:00 METAR CYBG 161600Z 27018KT 25SM BKN030 OVC040 03/M03 A2977 RMK SC6SC2 SLP088 =
2018-10-16 15:00 METAR CYBG 161500Z 26021G29KT 25SM BKN030 OVC040 02/M02 A2976 RMK SC6SC2 SLP086
                 =
2018-10-16 14:00 METAR CYBG 161400Z 25018G28KT 25SM OVC030 02/M02 A2973 RMK SC8 SLP074 =
2018-10-16 13:00 METAR CYBG 161300Z 26023G33KT 25SM OVC026 02/M02 A2969 RMK SC8 PRESRR SLP062 =
2018-10-16 12:00 METAR CYBG 161200Z 27029G35KT 25SM -SN FEW012 OVC024 02/M00 A2962 RMK SF2SC6
                 PRESRR SLP038 =
2018-10-16 11:00 METAR CYBG 161100Z 26031G36KT 7SM -RASN FEW010 BKN018 OVC039 03/01 A2952 RMK
                 SF2SC4SC2 PRESRR SLP004 =
2018-10-16 10:00 METAR CYBG 161000Z 25020G29KT 3SM -RASN SCT010 OVC020 02/00 A2943 RMK SF3SC5
                 PRESRR SLP973 =
2018-10-16 09:00 METAR CYBG 160900Z 24019KT 15SM -RA BKN020 OVC055 03/01 A2937 RMK SC5SC3 SLP950
                 =

Support USWX by starting your Amazon purchase here.